sensor_id;sensor_type;location;lat;lon;timestamp;P1;durP1;ratioP1;P2;durP2;ratioP2
43646;SDS011;56152;49.996;18.980;2022-11-27T00:04:21;77.25;;;40.13;;
43646;SDS011;56152;49.996;18.980;2022-11-27T00:09:23;74.63;;;39.08;;
43646;SDS011;56152;49.996;18.980;2022-11-27T00:14:27;84.00;;;43.30;;
43646;SDS011;56152;49.996;18.980;2022-11-27T00:19:29;67.57;;;35.92;;
43646;SDS011;56152;49.996;18.980;2022-11-27T00:24:34;78.65;;;40.20;;
43646;SDS011;56152;49.996;18.980;2022-11-27T00:29:38;85.10;;;41.15;;
43646;SDS011;56152;49.996;18.980;2022-11-27T00:34:43;72.32;;;37.83;;
43646;SDS011;56152;49.996;18.980;2022-11-27T00:39:46;72.60;;;36.35;;
43646;SDS011;56152;49.996;18.980;2022-11-27T00:44:50;47.55;;;26.67;;
43646;SDS011;56152;49.996;18.980;2022-11-27T00:49:51;58.72;;;30.23;;
43646;SDS011;56152;49.996;18.980;2022-11-27T00:54:56;57.22;;;28.70;;
43646;SDS011;56152;49.996;18.980;2022-11-27T01:00:01;59.60;;;32.15;;
43646;SDS011;56152;49.996;18.980;2022-11-27T01:05:04;73.45;;;35.92;;
43646;SDS011;56152;49.996;18.980;2022-11-27T01:10:07;51.92;;;29.73;;
43646;SDS011;56152;49.996;18.980;2022-11-27T01:15:14;70.38;;;37.15;;
43646;SDS011;56152;49.996;18.980;2022-11-27T01:20:16;61.05;;;32.58;;
43646;SDS011;56152;49.996;18.980;2022-11-27T01:25:22;57.40;;;34.45;;
43646;SDS011;56152;49.996;18.980;2022-11-27T01:30:26;45.13;;;27.85;;
43646;SDS011;56152;49.996;18.980;2022-11-27T01:35:39;52.80;;;28.48;;
43646;SDS011;56152;49.996;18.980;2022-11-27T01:40:41;69.70;;;33.80;;
43646;SDS011;56152;49.996;18.980;2022-11-27T01:45:56;70.53;;;35.90;;
43646;SDS011;56152;49.996;18.980;2022-11-27T01:50:58;57.53;;;27.17;;
43646;SDS011;56152;49.996;18.980;2022-11-27T01:56:00;52.22;;;28.38;;
43646;SDS011;56152;49.996;18.980;2022-11-27T02:01:05;62.85;;;31.08;;
43646;SDS011;56152;49.996;18.980;2022-11-27T02:11:35;177.82;;;68.25;;
43646;SDS011;56152;49.996;18.980;2022-11-27T02:16:54;89.55;;;42.33;;
43646;SDS011;56152;49.996;18.980;2022-11-27T02:22:07;60.72;;;30.80;;
43646;SDS011;56152;49.996;18.980;2022-11-27T02:27:39;107.25;;;47.10;;
43646;SDS011;56152;49.996;18.980;2022-11-27T02:32:56;65.00;;;31.65;;
43646;SDS011;56152;49.996;18.980;2022-11-27T02:38:01;84.70;;;39.58;;
43646;SDS011;56152;49.996;18.980;2022-11-27T02:43:09;56.17;;;29.80;;
43646;SDS011;56152;49.996;18.980;2022-11-27T02:48:18;76.00;;;34.40;;
43646;SDS011;56152;49.996;18.980;2022-11-27T02:53:24;77.72;;;34.90;;
43646;SDS011;56152;49.996;18.980;2022-11-27T02:58:31;76.45;;;34.97;;
43646;SDS011;56152;49.996;18.980;2022-11-27T03:03:42;70.85;;;34.33;;
43646;SDS011;56152;49.996;18.980;2022-11-27T03:13:52;115.63;;;44.25;;
43646;SDS011;56152;49.996;18.980;2022-11-27T03:19:04;79.55;;;31.50;;
43646;SDS011;56152;49.996;18.980;2022-11-27T03:24:18;81.47;;;35.05;;
43646;SDS011;56152;49.996;18.980;2022-11-27T03:29:22;84.23;;;32.67;;
43646;SDS011;56152;49.996;18.980;2022-11-27T03:34:31;67.72;;;31.20;;
43646;SDS011;56152;49.996;18.980;2022-11-27T03:39:33;79.72;;;36.25;;
43646;SDS011;56152;49.996;18.980;2022-11-27T03:44:41;63.88;;;30.58;;
43646;SDS011;56152;49.996;18.980;2022-11-27T03:49:53;88.32;;;40.33;;
43646;SDS011;56152;49.996;18.980;2022-11-27T03:55:07;71.55;;;33.75;;
43646;SDS011;56152;49.996;18.980;2022-11-27T04:00:13;59.55;;;30.27;;
43646;SDS011;56152;49.996;18.980;2022-11-27T04:05:19;78.20;;;41.63;;
43646;SDS011;56152;49.996;18.980;2022-11-27T04:10:25;76.80;;;38.70;;
43646;SDS011;56152;49.996;18.980;2022-11-27T04:15:27;75.18;;;35.17;;
43646;SDS011;56152;49.996;18.980;2022-11-27T04:20:34;56.90;;;32.20;;
43646;SDS011;56152;49.996;18.980;2022-11-27T04:25:41;61.83;;;32.45;;
43646;SDS011;56152;49.996;18.980;2022-11-27T04:30:44;72.78;;;36.42;;
43646;SDS011;56152;49.996;18.980;2022-11-27T04:35:55;57.27;;;32.70;;
43646;SDS011;56152;49.996;18.980;2022-11-27T04:40:57;65.55;;;34.85;;
43646;SDS011;56152;49.996;18.980;2022-11-27T04:46:00;62.55;;;32.55;;
43646;SDS011;56152;49.996;18.980;2022-11-27T04:51:04;65.90;;;33.15;;
43646;SDS011;56152;49.996;18.980;2022-11-27T04:56:07;61.75;;;33.58;;
43646;SDS011;56152;49.996;18.980;2022-11-27T05:01:10;57.30;;;30.20;;
43646;SDS011;56152;49.996;18.980;2022-11-27T05:06:14;50.10;;;28.10;;
43646;SDS011;56152;49.996;18.980;2022-11-27T05:11:17;53.13;;;29.13;;
43646;SDS011;56152;49.996;18.980;2022-11-27T05:16:20;48.07;;;27.83;;
43646;SDS011;56152;49.996;18.980;2022-11-27T05:21:24;57.00;;;30.35;;
43646;SDS011;56152;49.996;18.980;2022-11-27T05:26:27;46.77;;;24.60;;
43646;SDS011;56152;49.996;18.980;2022-11-27T05:31:29;39.55;;;21.80;;
43646;SDS011;56152;49.996;18.980;2022-11-27T05:36:37;54.63;;;29.38;;
43646;SDS011;56152;49.996;18.980;2022-11-27T05:41:40;45.05;;;23.13;;
43646;SDS011;56152;49.996;18.980;2022-11-27T05:46:50;51.75;;;26.33;;
43646;SDS011;56152;49.996;18.980;2022-11-27T05:51:55;38.47;;;20.40;;
43646;SDS011;56152;49.996;18.980;2022-11-27T05:57:00;49.42;;;24.50;;
43646;SDS011;56152;49.996;18.980;2022-11-27T06:02:03;39.93;;;23.33;;
43646;SDS011;56152;49.996;18.980;2022-11-27T06:07:06;52.20;;;27.53;;
43646;SDS011;56152;49.996;18.980;2022-11-27T06:12:09;47.30;;;25.73;;
43646;SDS011;56152;49.996;18.980;2022-11-27T06:17:31;37.28;;;20.85;;
43646;SDS011;56152;49.996;18.980;2022-11-27T06:22:35;37.00;;;20.00;;
43646;SDS011;56152;49.996;18.980;2022-11-27T06:27:47;27.38;;;16.45;;
43646;SDS011;56152;49.996;18.980;2022-11-27T06:32:49;42.58;;;22.23;;
43646;SDS011;56152;49.996;18.980;2022-11-27T06:37:53;58.88;;;31.30;;
43646;SDS011;56152;49.996;18.980;2022-11-27T06:42:56;53.47;;;29.38;;
43646;SDS011;56152;49.996;18.980;2022-11-27T06:47:59;45.07;;;26.90;;
43646;SDS011;56152;49.996;18.980;2022-11-27T06:53:03;43.03;;;24.15;;
43646;SDS011;56152;49.996;18.980;2022-11-27T06:58:05;52.37;;;29.43;;
43646;SDS011;56152;49.996;18.980;2022-11-27T07:03:08;49.87;;;28.60;;
43646;SDS011;56152;49.996;18.980;2022-11-27T07:08:17;39.73;;;24.17;;
43646;SDS011;56152;49.996;18.980;2022-11-27T07:13:19;74.13;;;38.07;;
43646;SDS011;56152;49.996;18.980;2022-11-27T07:18:21;52.85;;;31.40;;
43646;SDS011;56152;49.996;18.980;2022-11-27T07:23:25;52.60;;;31.17;;
43646;SDS011;56152;49.996;18.980;2022-11-27T07:28:28;43.87;;;23.33;;
43646;SDS011;56152;49.996;18.980;2022-11-27T07:33:31;54.80;;;26.75;;
43646;SDS011;56152;49.996;18.980;2022-11-27T07:38:34;49.45;;;25.35;;
43646;SDS011;56152;49.996;18.980;2022-11-27T07:43:38;34.28;;;20.88;;
43646;SDS011;56152;49.996;18.980;2022-11-27T07:48:44;51.00;;;26.13;;
43646;SDS011;56152;49.996;18.980;2022-11-27T07:53:47;99.15;;;46.97;;
43646;SDS011;56152;49.996;18.980;2022-11-27T07:58:50;50.20;;;29.67;;
43646;SDS011;56152;49.996;18.980;2022-11-27T08:03:55;44.08;;;25.30;;
43646;SDS011;56152;49.996;18.980;2022-11-27T08:09:00;53.30;;;26.45;;
43646;SDS011;56152;49.996;18.980;2022-11-27T08:14:04;53.33;;;28.98;;
43646;SDS011;56152;49.996;18.980;2022-11-27T08:19:08;51.53;;;30.10;;
43646;SDS011;56152;49.996;18.980;2022-11-27T08:24:14;47.53;;;29.55;;
43646;SDS011;56152;49.996;18.980;2022-11-27T08:29:17;57.78;;;31.17;;
43646;SDS011;56152;49.996;18.980;2022-11-27T08:34:27;48.58;;;30.13;;
43646;SDS011;56152;49.996;18.980;2022-11-27T08:39:36;52.55;;;30.65;;
43646;SDS011;56152;49.996;18.980;2022-11-27T08:44:39;75.35;;;41.45;;
43646;SDS011;56152;49.996;18.980;2022-11-27T08:49:41;54.72;;;34.17;;
43646;SDS011;56152;49.996;18.980;2022-11-27T08:54:46;98.80;;;59.92;;
43646;SDS011;56152;49.996;18.980;2022-11-27T08:59:48;45.78;;;28.50;;
43646;SDS011;56152;49.996;18.980;2022-11-27T09:04:53;31.70;;;20.60;;
43646;SDS011;56152;49.996;18.980;2022-11-27T09:09:57;24.45;;;15.75;;
43646;SDS011;56152;49.996;18.980;2022-11-27T09:15:05;25.73;;;17.85;;
43646;SDS011;56152;49.996;18.980;2022-11-27T09:20:11;35.67;;;22.02;;
43646;SDS011;56152;49.996;18.980;2022-11-27T09:25:22;29.08;;;16.25;;
43646;SDS011;56152;49.996;18.980;2022-11-27T09:30:28;20.47;;;11.93;;
43646;SDS011;56152;49.996;18.980;2022-11-27T09:35:35;21.50;;;14.13;;
43646;SDS011;56152;49.996;18.980;2022-11-27T09:40:43;18.45;;;11.75;;
43646;SDS011;56152;49.996;18.980;2022-11-27T09:50:53;29.42;;;17.55;;
43646;SDS011;56152;49.996;18.980;2022-11-27T09:55:59;30.90;;;18.25;;
43646;SDS011;56152;49.996;18.980;2022-11-27T10:01:11;22.52;;;13.20;;
43646;SDS011;56152;49.996;18.980;2022-11-27T10:06:18;24.40;;;12.68;;
43646;SDS011;56152;49.996;18.980;2022-11-27T10:11:30;21.23;;;14.18;;
43646;SDS011;56152;49.996;18.980;2022-11-27T10:16:38;18.17;;;11.65;;
43646;SDS011;56152;49.996;18.980;2022-11-27T10:21:45;28.17;;;18.42;;
43646;SDS011;56152;49.996;18.980;2022-11-27T10:26:53;30.98;;;20.90;;
43646;SDS011;56152;49.996;18.980;2022-11-27T10:32:00;39.13;;;24.35;;
43646;SDS011;56152;49.996;18.980;2022-11-27T10:37:06;30.42;;;20.83;;
43646;SDS011;56152;49.996;18.980;2022-11-27T10:42:18;17.48;;;13.68;;
43646;SDS011;56152;49.996;18.980;2022-11-27T10:47:25;37.33;;;17.27;;
43646;SDS011;56152;49.996;18.980;2022-11-27T10:52:29;23.80;;;16.38;;
43646;SDS011;56152;49.996;18.980;2022-11-27T10:57:43;27.73;;;16.23;;
43646;SDS011;56152;49.996;18.980;2022-11-27T11:03:02;20.80;;;13.13;;
43646;SDS011;56152;49.996;18.980;2022-11-27T11:08:13;71.95;;;47.17;;
43646;SDS011;56152;49.996;18.980;2022-11-27T11:13:19;25.73;;;18.25;;
43646;SDS011;56152;49.996;18.980;2022-11-27T11:18:27;25.42;;;17.02;;
43646;SDS011;56152;49.996;18.980;2022-11-27T11:23:35;28.92;;;18.52;;
43646;SDS011;56152;49.996;18.980;2022-11-27T11:28:43;33.90;;;22.17;;
43646;SDS011;56152;49.996;18.980;2022-11-27T11:33:51;31.73;;;20.02;;
43646;SDS011;56152;49.996;18.980;2022-11-27T11:38:58;36.28;;;19.63;;
43646;SDS011;56152;49.996;18.980;2022-11-27T11:44:02;31.23;;;15.75;;
43646;SDS011;56152;49.996;18.980;2022-11-27T11:49:04;67.70;;;33.30;;
43646;SDS011;56152;49.996;18.980;2022-11-27T11:54:19;138.07;;;63.00;;
43646;SDS011;56152;49.996;18.980;2022-11-27T11:59:35;32.03;;;19.73;;
43646;SDS011;56152;49.996;18.980;2022-11-27T12:04:50;58.15;;;35.67;;
43646;SDS011;56152;49.996;18.980;2022-11-27T12:15:15;20.67;;;13.15;;
43646;SDS011;56152;49.996;18.980;2022-11-27T12:20:25;19.92;;;11.90;;
43646;SDS011;56152;49.996;18.980;2022-11-27T12:25:34;17.48;;;11.52;;
43646;SDS011;56152;49.996;18.980;2022-11-27T12:30:43;20.33;;;12.13;;
43646;SDS011;56152;49.996;18.980;2022-11-27T12:35:56;29.80;;;19.70;;
43646;SDS011;56152;49.996;18.980;2022-11-27T12:41:12;57.63;;;35.17;;
43646;SDS011;56152;49.996;18.980;2022-11-27T12:46:39;66.03;;;31.65;;
43646;SDS011;56152;49.996;18.980;2022-11-27T12:51:52;43.42;;;24.65;;
43646;SDS011;56152;49.996;18.980;2022-11-27T12:57:01;24.30;;;15.73;;
43646;SDS011;56152;49.996;18.980;2022-11-27T13:02:20;67.65;;;31.40;;
43646;SDS011;56152;49.996;18.980;2022-11-27T13:07:29;36.58;;;19.17;;
43646;SDS011;56152;49.996;18.980;2022-11-27T13:12:41;50.05;;;22.13;;
43646;SDS011;56152;49.996;18.980;2022-11-27T13:17:48;59.25;;;25.95;;
43646;SDS011;56152;49.996;18.980;2022-11-27T13:22:58;43.42;;;22.75;;
43646;SDS011;56152;49.996;18.980;2022-11-27T13:28:02;47.08;;;26.88;;
43646;SDS011;56152;49.996;18.980;2022-11-27T13:33:13;50.08;;;28.45;;
43646;SDS011;56152;49.996;18.980;2022-11-27T13:38:27;53.13;;;35.00;;
43646;SDS011;56152;49.996;18.980;2022-11-27T13:43:38;58.78;;;31.88;;
43646;SDS011;56152;49.996;18.980;2022-11-27T13:54:13;55.10;;;33.10;;
43646;SDS011;56152;49.996;18.980;2022-11-27T13:59:21;61.72;;;33.67;;
43646;SDS011;56152;49.996;18.980;2022-11-27T14:04:26;48.13;;;27.63;;
43646;SDS011;56152;49.996;18.980;2022-11-27T14:09:30;45.08;;;22.65;;
43646;SDS011;56152;49.996;18.980;2022-11-27T14:14:36;42.67;;;26.92;;
43646;SDS011;56152;49.996;18.980;2022-11-27T14:19:43;34.63;;;21.75;;
43646;SDS011;56152;49.996;18.980;2022-11-27T14:24:52;26.27;;;17.10;;
43646;SDS011;56152;49.996;18.980;2022-11-27T14:29:57;28.27;;;19.48;;
43646;SDS011;56152;49.996;18.980;2022-11-27T14:35:26;33.70;;;24.42;;
43646;SDS011;56152;49.996;18.980;2022-11-27T14:40:28;26.27;;;20.52;;
43646;SDS011;56152;49.996;18.980;2022-11-27T14:45:36;102.78;;;54.38;;
43646;SDS011;56152;49.996;18.980;2022-11-27T14:50:45;52.00;;;31.05;;
43646;SDS011;56152;49.996;18.980;2022-11-27T14:55:50;43.63;;;26.70;;
43646;SDS011;56152;49.996;18.980;2022-11-27T15:00:57;56.58;;;34.53;;
43646;SDS011;56152;49.996;18.980;2022-11-27T15:06:06;79.63;;;45.83;;
43646;SDS011;56152;49.996;18.980;2022-11-27T15:11:13;81.25;;;47.85;;
43646;SDS011;56152;49.996;18.980;2022-11-27T15:16:16;88.88;;;55.25;;
43646;SDS011;56152;49.996;18.980;2022-11-27T15:21:23;82.90;;;45.60;;
43646;SDS011;56152;49.996;18.980;2022-11-27T15:26:31;98.95;;;51.95;;
43646;SDS011;56152;49.996;18.980;2022-11-27T15:31:38;105.70;;;63.85;;
43646;SDS011;56152;49.996;18.980;2022-11-27T15:36:55;74.18;;;45.97;;
43646;SDS011;56152;49.996;18.980;2022-11-27T15:41:59;46.50;;;32.95;;
43646;SDS011;56152;49.996;18.980;2022-11-27T15:47:03;43.55;;;28.98;;
43646;SDS011;56152;49.996;18.980;2022-11-27T15:52:11;47.38;;;31.40;;
43646;SDS011;56152;49.996;18.980;2022-11-27T15:57:14;46.88;;;35.50;;
43646;SDS011;56152;49.996;18.980;2022-11-27T16:02:16;28.55;;;19.08;;
43646;SDS011;56152;49.996;18.980;2022-11-27T16:07:20;35.42;;;22.88;;
43646;SDS011;56152;49.996;18.980;2022-11-27T16:17:48;47.30;;;31.42;;
43646;SDS011;56152;49.996;18.980;2022-11-27T16:22:55;43.35;;;29.90;;
43646;SDS011;56152;49.996;18.980;2022-11-27T16:27:58;57.50;;;36.83;;
43646;SDS011;56152;49.996;18.980;2022-11-27T16:33:00;54.83;;;33.50;;
43646;SDS011;56152;49.996;18.980;2022-11-27T16:38:11;38.97;;;26.55;;
43646;SDS011;56152;49.996;18.980;2022-11-27T16:43:13;46.05;;;30.35;;
43646;SDS011;56152;49.996;18.980;2022-11-27T16:48:17;61.60;;;40.47;;
43646;SDS011;56152;49.996;18.980;2022-11-27T16:53:28;78.88;;;48.33;;
43646;SDS011;56152;49.996;18.980;2022-11-27T16:58:31;73.32;;;39.22;;
43646;SDS011;56152;49.996;18.980;2022-11-27T17:03:34;88.28;;;41.47;;
43646;SDS011;56152;49.996;18.980;2022-11-27T17:08:41;201.70;;;101.13;;
43646;SDS011;56152;49.996;18.980;2022-11-27T17:13:43;108.55;;;58.33;;
43646;SDS011;56152;49.996;18.980;2022-11-27T17:18:45;81.10;;;48.08;;
43646;SDS011;56152;49.996;18.980;2022-11-27T17:23:52;72.40;;;42.85;;
43646;SDS011;56152;49.996;18.980;2022-11-27T17:28:56;98.57;;;53.75;;
43646;SDS011;56152;49.996;18.980;2022-11-27T17:33:59;67.47;;;40.28;;
43646;SDS011;56152;49.996;18.980;2022-11-27T17:39:05;61.88;;;37.33;;
43646;SDS011;56152;49.996;18.980;2022-11-27T17:44:11;55.10;;;33.77;;
43646;SDS011;56152;49.996;18.980;2022-11-27T17:49:15;107.43;;;58.38;;
43646;SDS011;56152;49.996;18.980;2022-11-27T17:54:20;72.05;;;42.13;;
43646;SDS011;56152;49.996;18.980;2022-11-27T17:59:22;77.72;;;48.72;;
43646;SDS011;56152;49.996;18.980;2022-11-27T18:04:24;88.40;;;52.60;;
43646;SDS011;56152;49.996;18.980;2022-11-27T18:09:31;95.05;;;55.00;;
43646;SDS011;56152;49.996;18.980;2022-11-27T18:14:33;81.87;;;48.73;;
43646;SDS011;56152;49.996;18.980;2022-11-27T18:19:48;68.25;;;44.50;;
43646;SDS011;56152;49.996;18.980;2022-11-27T18:24:58;82.30;;;47.00;;
43646;SDS011;56152;49.996;18.980;2022-11-27T18:30:02;81.22;;;48.42;;
43646;SDS011;56152;49.996;18.980;2022-11-27T18:35:05;79.03;;;45.75;;
43646;SDS011;56152;49.996;18.980;2022-11-27T18:40:09;76.07;;;44.00;;
43646;SDS011;56152;49.996;18.980;2022-11-27T18:45:12;88.70;;;52.35;;
43646;SDS011;56152;49.996;18.980;2022-11-27T18:50:14;76.47;;;46.20;;
43646;SDS011;56152;49.996;18.980;2022-11-27T18:55:18;139.33;;;57.10;;
43646;SDS011;56152;49.996;18.980;2022-11-27T19:00:21;155.35;;;64.03;;
43646;SDS011;56152;49.996;18.980;2022-11-27T19:05:23;146.45;;;70.85;;
43646;SDS011;56152;49.996;18.980;2022-11-27T19:10:27;118.73;;;61.10;;
43646;SDS011;56152;49.996;18.980;2022-11-27T19:15:29;97.82;;;54.42;;
43646;SDS011;56152;49.996;18.980;2022-11-27T19:20:34;119.80;;;65.22;;
43646;SDS011;56152;49.996;18.980;2022-11-27T19:25:38;145.20;;;79.30;;
43646;SDS011;56152;49.996;18.980;2022-11-27T19:30:41;126.07;;;62.47;;
43646;SDS011;56152;49.996;18.980;2022-11-27T19:35:49;70.33;;;40.10;;
43646;SDS011;56152;49.996;18.980;2022-11-27T19:41:02;80.07;;;45.77;;
43646;SDS011;56152;49.996;18.980;2022-11-27T19:46:13;79.03;;;43.67;;
43646;SDS011;56152;49.996;18.980;2022-11-27T19:51:16;81.87;;;49.60;;
43646;SDS011;56152;49.996;18.980;2022-11-27T19:56:19;77.07;;;50.63;;
43646;SDS011;56152;49.996;18.980;2022-11-27T20:01:27;83.70;;;49.67;;
43646;SDS011;56152;49.996;18.980;2022-11-27T20:06:33;123.03;;;64.20;;
43646;SDS011;56152;49.996;18.980;2022-11-27T20:11:39;142.10;;;79.10;;
43646;SDS011;56152;49.996;18.980;2022-11-27T20:16:42;115.13;;;65.30;;
43646;SDS011;56152;49.996;18.980;2022-11-27T20:21:51;124.67;;;58.07;;
43646;SDS011;56152;49.996;18.980;2022-11-27T20:26:56;106.73;;;53.23;;
43646;SDS011;56152;49.996;18.980;2022-11-27T20:31:58;123.80;;;60.80;;
43646;SDS011;56152;49.996;18.980;2022-11-27T20:37:03;144.80;;;68.37;;
43646;SDS011;56152;49.996;18.980;2022-11-27T20:42:13;123.17;;;61.97;;
43646;SDS011;56152;49.996;18.980;2022-11-27T20:47:21;88.77;;;51.83;;
43646;SDS011;56152;49.996;18.980;2022-11-27T20:52:24;113.33;;;57.43;;
43646;SDS011;56152;49.996;18.980;2022-11-27T20:57:28;102.20;;;54.10;;
43646;SDS011;56152;49.996;18.980;2022-11-27T21:02:29;105.13;;;57.07;;
43646;SDS011;56152;49.996;18.980;2022-11-27T21:07:33;164.63;;;75.90;;
43646;SDS011;56152;49.996;18.980;2022-11-27T21:12:38;181.80;;;89.13;;
43646;SDS011;56152;49.996;18.980;2022-11-27T21:17:41;168.90;;;93.57;;
43646;SDS011;56152;49.996;18.980;2022-11-27T21:22:44;170.70;;;87.93;;
43646;SDS011;56152;49.996;18.980;2022-11-27T21:27:49;144.63;;;75.93;;
43646;SDS011;56152;49.996;18.980;2022-11-27T21:32:54;144.70;;;80.30;;
43646;SDS011;56152;49.996;18.980;2022-11-27T21:37:56;130.50;;;69.00;;
43646;SDS011;56152;49.996;18.980;2022-11-27T21:43:01;134.80;;;72.57;;
43646;SDS011;56152;49.996;18.980;2022-11-27T21:48:03;149.17;;;81.90;;
43646;SDS011;56152;49.996;18.980;2022-11-27T21:53:13;141.70;;;81.57;;
43646;SDS011;56152;49.996;18.980;2022-11-27T21:58:19;139.50;;;74.53;;
43646;SDS011;56152;49.996;18.980;2022-11-27T22:03:22;164.23;;;85.40;;
43646;SDS011;56152;49.996;18.980;2022-11-27T22:08:24;143.10;;;72.57;;
43646;SDS011;56152;49.996;18.980;2022-11-27T22:13:28;114.73;;;63.47;;
43646;SDS011;56152;49.996;18.980;2022-11-27T22:18:30;100.50;;;53.87;;
43646;SDS011;56152;49.996;18.980;2022-11-27T22:23:35;95.60;;;48.97;;
43646;SDS011;56152;49.996;18.980;2022-11-27T22:28:46;75.82;;;38.15;;
43646;SDS011;56152;49.996;18.980;2022-11-27T22:33:49;93.67;;;50.93;;
43646;SDS011;56152;49.996;18.980;2022-11-27T22:38:52;109.73;;;53.63;;
43646;SDS011;56152;49.996;18.980;2022-11-27T22:44:05;111.93;;;58.77;;
43646;SDS011;56152;49.996;18.980;2022-11-27T22:49:11;121.80;;;66.10;;
43646;SDS011;56152;49.996;18.980;2022-11-27T22:54:14;76.60;;;43.37;;
43646;SDS011;56152;49.996;18.980;2022-11-27T22:59:20;83.33;;;49.37;;
43646;SDS011;56152;49.996;18.980;2022-11-27T23:04:22;83.33;;;46.90;;
43646;SDS011;56152;49.996;18.980;2022-11-27T23:09:25;90.53;;;48.90;;
43646;SDS011;56152;49.996;18.980;2022-11-27T23:14:30;106.93;;;53.77;;
43646;SDS011;56152;49.996;18.980;2022-11-27T23:19:31;125.13;;;60.37;;
43646;SDS011;56152;49.996;18.980;2022-11-27T23:24:35;125.53;;;66.70;;
43646;SDS011;56152;49.996;18.980;2022-11-27T23:29:38;121.97;;;63.27;;
43646;SDS011;56152;49.996;18.980;2022-11-27T23:34:41;120.00;;;63.03;;
43646;SDS011;56152;49.996;18.980;2022-11-27T23:40:00;158.87;;;78.30;;
43646;SDS011;56152;49.996;18.980;2022-11-27T23:45:06;147.73;;;65.23;;
43646;SDS011;56152;49.996;18.980;2022-11-27T23:50:17;149.90;;;66.03;;
43646;SDS011;56152;49.996;18.980;2022-11-27T23:55:20;122.23;;;60.97;;
